sensor_id;sensor_type;location;lat;lon;timestamp;P1;durP1;ratioP1;P2;durP2;ratioP2
78618;SDS011;67941;52.506;5.470;2023-04-29T00:00:07;7.00;;;1.92;;
78618;SDS011;67941;52.506;5.470;2023-04-29T00:02:40;9.93;;;3.42;;
78618;SDS011;67941;52.506;5.470;2023-04-29T00:05:08;3.97;;;1.50;;
78618;SDS011;67941;52.506;5.470;2023-04-29T00:07:40;7.28;;;2.42;;
78618;SDS011;67941;52.506;5.470;2023-04-29T00:10:09;6.97;;;2.42;;
78618;SDS011;67941;52.506;5.470;2023-04-29T00:12:57;7.28;;;2.15;;
78618;SDS011;67941;52.506;5.470;2023-04-29T00:15:26;3.50;;;1.20;;
78618;SDS011;67941;52.506;5.470;2023-04-29T00:17:55;6.65;;;2.63;;
78618;SDS011;67941;52.506;5.470;2023-04-29T00:20:24;5.55;;;1.60;;
78618;SDS011;67941;52.506;5.470;2023-04-29T00:22:55;6.03;;;1.40;;
78618;SDS011;67941;52.506;5.470;2023-04-29T00:25:24;9.13;;;3.22;;
78618;SDS011;67941;52.506;5.470;2023-04-29T00:27:53;6.35;;;2.08;;
78618;SDS011;67941;52.506;5.470;2023-04-29T00:30:26;5.30;;;2.00;;
78618;SDS011;67941;52.506;5.470;2023-04-29T00:32:55;5.93;;;2.33;;
78618;SDS011;67941;52.506;5.470;2023-04-29T00:35:24;5.45;;;2.60;;
78618;SDS011;67941;52.506;5.470;2023-04-29T00:37:55;7.47;;;2.60;;
78618;SDS011;67941;52.506;5.470;2023-04-29T00:40:25;6.28;;;2.00;;
78618;SDS011;67941;52.506;5.470;2023-04-29T00:42:55;5.15;;;1.63;;
78618;SDS011;67941;52.506;5.470;2023-04-29T00:45:24;8.68;;;3.38;;
78618;SDS011;67941;52.506;5.470;2023-04-29T00:47:53;6.32;;;2.95;;
78618;SDS011;67941;52.506;5.470;2023-04-29T00:50:21;5.95;;;2.50;;
78618;SDS011;67941;52.506;5.470;2023-04-29T00:52:50;6.05;;;2.47;;
78618;SDS011;67941;52.506;5.470;2023-04-29T00:55:22;3.88;;;1.48;;
78618;SDS011;67941;52.506;5.470;2023-04-29T00:57:51;5.53;;;1.42;;
78618;SDS011;67941;52.506;5.470;2023-04-29T01:00:21;4.55;;;1.90;;
78618;SDS011;67941;52.506;5.470;2023-04-29T01:02:51;7.80;;;2.15;;
78618;SDS011;67941;52.506;5.470;2023-04-29T01:05:21;4.47;;;1.55;;
78618;SDS011;67941;52.506;5.470;2023-04-29T01:07:53;4.22;;;1.60;;
78618;SDS011;67941;52.506;5.470;2023-04-29T01:10:34;7.00;;;2.40;;
78618;SDS011;67941;52.506;5.470;2023-04-29T01:13:08;5.95;;;1.88;;
78618;SDS011;67941;52.506;5.470;2023-04-29T01:15:44;6.40;;;2.40;;
78618;SDS011;67941;52.506;5.470;2023-04-29T01:18:19;7.60;;;2.42;;
78618;SDS011;67941;52.506;5.470;2023-04-29T01:20:53;4.50;;;1.30;;
78618;SDS011;67941;52.506;5.470;2023-04-29T01:23:28;8.13;;;3.15;;
78618;SDS011;67941;52.506;5.470;2023-04-29T01:25:57;9.77;;;3.03;;
78618;SDS011;67941;52.506;5.470;2023-04-29T01:28:53;13.77;;;3.55;;
78618;SDS011;67941;52.506;5.470;2023-04-29T01:31:30;5.38;;;1.65;;
78618;SDS011;67941;52.506;5.470;2023-04-29T01:34:07;11.25;;;3.45;;
78618;SDS011;67941;52.506;5.470;2023-04-29T01:36:41;9.02;;;3.25;;
78618;SDS011;67941;52.506;5.470;2023-04-29T01:39:24;7.32;;;2.80;;
78618;SDS011;67941;52.506;5.470;2023-04-29T01:42:09;10.13;;;3.08;;
78618;SDS011;67941;52.506;5.470;2023-04-29T01:44:42;9.23;;;3.28;;
78618;SDS011;67941;52.506;5.470;2023-04-29T01:47:12;8.88;;;2.75;;
78618;SDS011;67941;52.506;5.470;2023-04-29T01:49:48;12.40;;;2.92;;
78618;SDS011;67941;52.506;5.470;2023-04-29T01:52:16;10.07;;;3.45;;
78618;SDS011;67941;52.506;5.470;2023-04-29T01:54:56;10.10;;;4.20;;
78618;SDS011;67941;52.506;5.470;2023-04-29T01:57:32;6.18;;;2.53;;
78618;SDS011;67941;52.506;5.470;2023-04-29T02:00:21;8.43;;;3.28;;
78618;SDS011;67941;52.506;5.470;2023-04-29T02:02:57;6.50;;;1.67;;
78618;SDS011;67941;52.506;5.470;2023-04-29T02:05:37;11.20;;;4.15;;
78618;SDS011;67941;52.506;5.470;2023-04-29T02:08:05;9.43;;;3.47;;
78618;SDS011;67941;52.506;5.470;2023-04-29T02:10:46;6.85;;;2.63;;
78618;SDS011;67941;52.506;5.470;2023-04-29T02:13:35;7.97;;;2.85;;
78618;SDS011;67941;52.506;5.470;2023-04-29T02:16:08;6.50;;;2.17;;
78618;SDS011;67941;52.506;5.470;2023-04-29T02:18:41;7.15;;;2.33;;
78618;SDS011;67941;52.506;5.470;2023-04-29T02:21:10;8.48;;;3.08;;
78618;SDS011;67941;52.506;5.470;2023-04-29T02:23:39;10.25;;;3.25;;
78618;SDS011;67941;52.506;5.470;2023-04-29T02:26:10;7.13;;;2.40;;
78618;SDS011;67941;52.506;5.470;2023-04-29T02:28:39;6.55;;;2.47;;
78618;SDS011;67941;52.506;5.470;2023-04-29T02:31:08;8.68;;;3.63;;
78618;SDS011;67941;52.506;5.470;2023-04-29T02:33:37;7.97;;;2.92;;
78618;SDS011;67941;52.506;5.470;2023-04-29T02:36:08;9.85;;;3.90;;
78618;SDS011;67941;52.506;5.470;2023-04-29T02:38:37;10.02;;;3.22;;
78618;SDS011;67941;52.506;5.470;2023-04-29T02:41:06;9.25;;;3.72;;
78618;SDS011;67941;52.506;5.470;2023-04-29T02:43:37;7.85;;;3.03;;
78618;SDS011;67941;52.506;5.470;2023-04-29T02:46:06;7.18;;;3.00;;
78618;SDS011;67941;52.506;5.470;2023-04-29T02:48:35;10.75;;;2.38;;
78618;SDS011;67941;52.506;5.470;2023-04-29T02:51:04;9.10;;;3.47;;
78618;SDS011;67941;52.506;5.470;2023-04-29T02:53:34;10.57;;;3.83;;
78618;SDS011;67941;52.506;5.470;2023-04-29T02:56:03;7.25;;;3.08;;
78618;SDS011;67941;52.506;5.470;2023-04-29T02:58:32;8.40;;;2.78;;
78618;SDS011;67941;52.506;5.470;2023-04-29T03:01:03;8.07;;;3.05;;
78618;SDS011;67941;52.506;5.470;2023-04-29T03:03:32;7.10;;;2.13;;
78618;SDS011;67941;52.506;5.470;2023-04-29T03:06:02;9.23;;;2.78;;
78618;SDS011;67941;52.506;5.470;2023-04-29T03:08:30;5.20;;;1.73;;
78618;SDS011;67941;52.506;5.470;2023-04-29T03:11:00;6.88;;;2.40;;
78618;SDS011;67941;52.506;5.470;2023-04-29T03:13:30;12.82;;;3.92;;
78618;SDS011;67941;52.506;5.470;2023-04-29T03:15:59;6.95;;;3.58;;
78618;SDS011;67941;52.506;5.470;2023-04-29T03:18:30;5.20;;;2.28;;
78618;SDS011;67941;52.506;5.470;2023-04-29T03:21:00;7.80;;;2.65;;
78618;SDS011;67941;52.506;5.470;2023-04-29T03:23:29;5.35;;;2.10;;
78618;SDS011;67941;52.506;5.470;2023-04-29T03:26:00;5.20;;;2.00;;
78618;SDS011;67941;52.506;5.470;2023-04-29T03:28:30;7.63;;;2.35;;
78618;SDS011;67941;52.506;5.470;2023-04-29T03:30:59;9.20;;;3.53;;
78618;SDS011;67941;52.506;5.470;2023-04-29T03:33:31;6.15;;;2.08;;
78618;SDS011;67941;52.506;5.470;2023-04-29T03:36:00;10.20;;;3.45;;
78618;SDS011;67941;52.506;5.470;2023-04-29T03:38:49;5.78;;;2.25;;
78618;SDS011;67941;52.506;5.470;2023-04-29T03:41:18;8.13;;;3.20;;
78618;SDS011;67941;52.506;5.470;2023-04-29T03:43:48;8.30;;;3.30;;
78618;SDS011;67941;52.506;5.470;2023-04-29T03:46:19;6.03;;;2.08;;
78618;SDS011;67941;52.506;5.470;2023-04-29T03:48:50;8.38;;;3.13;;
78618;SDS011;67941;52.506;5.470;2023-04-29T03:51:21;6.18;;;2.05;;
78618;SDS011;67941;52.506;5.470;2023-04-29T03:53:54;6.78;;;3.00;;
78618;SDS011;67941;52.506;5.470;2023-04-29T03:56:24;9.20;;;3.05;;
78618;SDS011;67941;52.506;5.470;2023-04-29T03:58:53;9.20;;;3.58;;
78618;SDS011;67941;52.506;5.470;2023-04-29T04:01:24;7.78;;;2.85;;
78618;SDS011;67941;52.506;5.470;2023-04-29T04:03:56;7.43;;;2.85;;
78618;SDS011;67941;52.506;5.470;2023-04-29T04:06:25;6.28;;;2.33;;
78618;SDS011;67941;52.506;5.470;2023-04-29T04:08:54;6.10;;;2.03;;
78618;SDS011;67941;52.506;5.470;2023-04-29T04:11:28;5.32;;;2.50;;
78618;SDS011;67941;52.506;5.470;2023-04-29T04:14:00;6.97;;;2.42;;
78618;SDS011;67941;52.506;5.470;2023-04-29T04:16:30;8.23;;;2.70;;
78618;SDS011;67941;52.506;5.470;2023-04-29T04:19:02;8.45;;;3.08;;
78618;SDS011;67941;52.506;5.470;2023-04-29T04:21:35;5.70;;;2.13;;
78618;SDS011;67941;52.506;5.470;2023-04-29T04:24:07;10.85;;;3.55;;
78618;SDS011;67941;52.506;5.470;2023-04-29T04:26:36;6.32;;;2.65;;
78618;SDS011;67941;52.506;5.470;2023-04-29T04:29:20;7.45;;;3.13;;
78618;SDS011;67941;52.506;5.470;2023-04-29T04:31:58;5.30;;;1.98;;
78618;SDS011;67941;52.506;5.470;2023-04-29T04:34:30;7.60;;;2.60;;
78618;SDS011;67941;52.506;5.470;2023-04-29T04:37:00;5.97;;;2.20;;
78618;SDS011;67941;52.506;5.470;2023-04-29T04:39:30;7.47;;;3.00;;
78618;SDS011;67941;52.506;5.470;2023-04-29T04:41:59;9.15;;;3.05;;
78618;SDS011;67941;52.506;5.470;2023-04-29T04:44:30;6.63;;;2.50;;
78618;SDS011;67941;52.506;5.470;2023-04-29T04:47:12;8.40;;;3.00;;
78618;SDS011;67941;52.506;5.470;2023-04-29T04:50:04;7.55;;;2.25;;
78618;SDS011;67941;52.506;5.470;2023-04-29T04:52:35;5.07;;;1.83;;
78618;SDS011;67941;52.506;5.470;2023-04-29T04:55:35;3.50;;;1.27;;
78618;SDS011;67941;52.506;5.470;2023-04-29T04:58:04;4.93;;;1.75;;
78618;SDS011;67941;52.506;5.470;2023-04-29T05:00:34;7.70;;;2.38;;
78618;SDS011;67941;52.506;5.470;2023-04-29T05:03:03;5.38;;;2.13;;
78618;SDS011;67941;52.506;5.470;2023-04-29T05:05:35;8.10;;;4.38;;
78618;SDS011;67941;52.506;5.470;2023-04-29T05:08:03;6.63;;;2.33;;
78618;SDS011;67941;52.506;5.470;2023-04-29T05:10:38;6.43;;;2.50;;
78618;SDS011;67941;52.506;5.470;2023-04-29T05:13:07;8.77;;;2.50;;
78618;SDS011;67941;52.506;5.470;2023-04-29T05:15:36;6.13;;;1.85;;
78618;SDS011;67941;52.506;5.470;2023-04-29T05:18:06;12.30;;;2.88;;
78618;SDS011;67941;52.506;5.470;2023-04-29T05:20:38;5.05;;;1.80;;
78618;SDS011;67941;52.506;5.470;2023-04-29T05:23:07;3.38;;;1.63;;
78618;SDS011;67941;52.506;5.470;2023-04-29T05:25:51;8.90;;;3.03;;
78618;SDS011;67941;52.506;5.470;2023-04-29T05:28:20;6.47;;;2.38;;
78618;SDS011;67941;52.506;5.470;2023-04-29T05:30:50;8.02;;;2.92;;
78618;SDS011;67941;52.506;5.470;2023-04-29T05:33:19;6.10;;;2.20;;
78618;SDS011;67941;52.506;5.470;2023-04-29T05:35:51;6.10;;;2.08;;
78618;SDS011;67941;52.506;5.470;2023-04-29T05:38:20;7.25;;;2.35;;
78618;SDS011;67941;52.506;5.470;2023-04-29T05:41:01;10.48;;;2.40;;
78618;SDS011;67941;52.506;5.470;2023-04-29T05:43:59;8.40;;;3.00;;
78618;SDS011;67941;52.506;5.470;2023-04-29T05:46:30;7.80;;;2.35;;
78618;SDS011;67941;52.506;5.470;2023-04-29T05:48:59;6.25;;;2.63;;
78618;SDS011;67941;52.506;5.470;2023-04-29T05:51:30;5.57;;;1.60;;
78618;SDS011;67941;52.506;5.470;2023-04-29T05:53:59;6.72;;;2.72;;
78618;SDS011;67941;52.506;5.470;2023-04-29T05:56:29;5.25;;;2.25;;
78618;SDS011;67941;52.506;5.470;2023-04-29T05:58:58;5.88;;;2.10;;
78618;SDS011;67941;52.506;5.470;2023-04-29T06:01:27;7.55;;;2.67;;
78618;SDS011;67941;52.506;5.470;2023-04-29T06:03:57;4.30;;;1.65;;
78618;SDS011;67941;52.506;5.470;2023-04-29T06:06:48;6.50;;;2.17;;
78618;SDS011;67941;52.506;5.470;2023-04-29T06:09:25;6.72;;;1.67;;
78618;SDS011;67941;52.506;5.470;2023-04-29T06:11:58;4.38;;;1.92;;
78618;SDS011;67941;52.506;5.470;2023-04-29T06:14:27;5.43;;;1.67;;
78618;SDS011;67941;52.506;5.470;2023-04-29T06:16:57;5.15;;;1.75;;
78618;SDS011;67941;52.506;5.470;2023-04-29T06:19:26;6.72;;;2.28;;
78618;SDS011;67941;52.506;5.470;2023-04-29T06:21:59;6.63;;;2.72;;
78618;SDS011;67941;52.506;5.470;2023-04-29T06:24:29;4.90;;;2.05;;
78618;SDS011;67941;52.506;5.470;2023-04-29T06:26:58;5.05;;;2.30;;
78618;SDS011;67941;52.506;5.470;2023-04-29T06:29:28;6.50;;;2.40;;
78618;SDS011;67941;52.506;5.470;2023-04-29T06:31:57;4.82;;;2.28;;
78618;SDS011;67941;52.506;5.470;2023-04-29T06:34:26;4.90;;;1.73;;
78618;SDS011;67941;52.506;5.470;2023-04-29T06:37:30;5.15;;;1.70;;
78618;SDS011;67941;52.506;5.470;2023-04-29T06:40:14;9.68;;;3.15;;
78618;SDS011;67941;52.506;5.470;2023-04-29T06:43:01;5.63;;;2.17;;
78618;SDS011;67941;52.506;5.470;2023-04-29T06:45:33;4.30;;;1.77;;
78618;SDS011;67941;52.506;5.470;2023-04-29T06:48:17;5.93;;;2.20;;
78618;SDS011;67941;52.506;5.470;2023-04-29T06:50:50;6.70;;;2.50;;
78618;SDS011;67941;52.506;5.470;2023-04-29T06:53:22;7.97;;;2.22;;
78618;SDS011;67941;52.506;5.470;2023-04-29T06:55:51;5.93;;;2.35;;
78618;SDS011;67941;52.506;5.470;2023-04-29T06:58:20;5.00;;;1.90;;
78618;SDS011;67941;52.506;5.470;2023-04-29T07:00:49;7.03;;;2.42;;
78618;SDS011;67941;52.506;5.470;2023-04-29T07:03:20;9.23;;;2.42;;
78618;SDS011;67941;52.506;5.470;2023-04-29T07:05:49;5.32;;;2.33;;
78618;SDS011;67941;52.506;5.470;2023-04-29T07:08:18;6.00;;;1.98;;
78618;SDS011;67941;52.506;5.470;2023-04-29T07:10:54;7.43;;;2.50;;
78618;SDS011;67941;52.506;5.470;2023-04-29T07:13:24;5.68;;;1.85;;
78618;SDS011;67941;52.506;5.470;2023-04-29T07:15:53;8.45;;;2.65;;
78618;SDS011;67941;52.506;5.470;2023-04-29T07:18:22;6.32;;;2.47;;
78618;SDS011;67941;52.506;5.470;2023-04-29T07:20:51;8.25;;;2.78;;
78618;SDS011;67941;52.506;5.470;2023-04-29T07:23:23;10.77;;;3.13;;
78618;SDS011;67941;52.506;5.470;2023-04-29T07:25:51;6.20;;;2.50;;
78618;SDS011;67941;52.506;5.470;2023-04-29T07:28:20;7.75;;;2.47;;
78618;SDS011;67941;52.506;5.470;2023-04-29T07:30:51;7.68;;;2.72;;
78618;SDS011;67941;52.506;5.470;2023-04-29T07:33:20;6.28;;;2.20;;
78618;SDS011;67941;52.506;5.470;2023-04-29T07:35:49;7.63;;;2.50;;
78618;SDS011;67941;52.506;5.470;2023-04-29T07:38:19;6.57;;;2.38;;
78618;SDS011;67941;52.506;5.470;2023-04-29T07:40:51;6.70;;;2.00;;
78618;SDS011;67941;52.506;5.470;2023-04-29T07:43:19;5.57;;;2.05;;
78618;SDS011;67941;52.506;5.470;2023-04-29T07:45:49;5.05;;;2.00;;
78618;SDS011;67941;52.506;5.470;2023-04-29T07:48:17;4.75;;;2.08;;
78618;SDS011;67941;52.506;5.470;2023-04-29T07:50:47;6.93;;;2.85;;
78618;SDS011;67941;52.506;5.470;2023-04-29T07:53:16;4.95;;;2.00;;
78618;SDS011;67941;52.506;5.470;2023-04-29T07:55:45;5.70;;;1.92;;
78618;SDS011;67941;52.506;5.470;2023-04-29T07:58:16;8.27;;;2.45;;
78618;SDS011;67941;52.506;5.470;2023-04-29T08:00:45;6.93;;;2.67;;
78618;SDS011;67941;52.506;5.470;2023-04-29T08:03:14;4.30;;;1.80;;
78618;SDS011;67941;52.506;5.470;2023-04-29T08:05:43;5.15;;;2.25;;
78618;SDS011;67941;52.506;5.470;2023-04-29T08:08:15;7.63;;;2.47;;
78618;SDS011;67941;52.506;5.470;2023-04-29T08:10:44;5.28;;;1.55;;
78618;SDS011;67941;52.506;5.470;2023-04-29T08:13:13;5.80;;;3.00;;
78618;SDS011;67941;52.506;5.470;2023-04-29T08:15:44;5.38;;;2.80;;
78618;SDS011;67941;52.506;5.470;2023-04-29T08:18:14;6.22;;;2.25;;
78618;SDS011;67941;52.506;5.470;2023-04-29T08:20:42;7.10;;;2.63;;
78618;SDS011;67941;52.506;5.470;2023-04-29T08:23:12;8.32;;;2.80;;
78618;SDS011;67941;52.506;5.470;2023-04-29T08:25:41;6.68;;;2.40;;
78618;SDS011;67941;52.506;5.470;2023-04-29T08:28:10;11.30;;;2.50;;
78618;SDS011;67941;52.506;5.470;2023-04-29T08:30:42;5.72;;;2.25;;
78618;SDS011;67941;52.506;5.470;2023-04-29T08:33:11;9.52;;;2.85;;
78618;SDS011;67941;52.506;5.470;2023-04-29T08:35:40;5.57;;;1.55;;
78618;SDS011;67941;52.506;5.470;2023-04-29T08:38:09;6.07;;;2.22;;
78618;SDS011;67941;52.506;5.470;2023-04-29T08:40:41;6.05;;;1.98;;
78618;SDS011;67941;52.506;5.470;2023-04-29T08:43:11;5.85;;;2.03;;
78618;SDS011;67941;52.506;5.470;2023-04-29T08:45:43;7.22;;;2.13;;
78618;SDS011;67941;52.506;5.470;2023-04-29T08:48:15;5.78;;;1.80;;
78618;SDS011;67941;52.506;5.470;2023-04-29T08:50:44;5.35;;;1.77;;
78618;SDS011;67941;52.506;5.470;2023-04-29T08:53:13;5.57;;;1.92;;
78618;SDS011;67941;52.506;5.470;2023-04-29T08:55:43;3.30;;;1.17;;
78618;SDS011;67941;52.506;5.470;2023-04-29T08:58:14;2.95;;;1.08;;
78618;SDS011;67941;52.506;5.470;2023-04-29T09:00:45;3.88;;;1.42;;
78618;SDS011;67941;52.506;5.470;2023-04-29T09:03:16;3.85;;;1.65;;
78618;SDS011;67941;52.506;5.470;2023-04-29T09:05:51;4.25;;;1.83;;
78618;SDS011;67941;52.506;5.470;2023-04-29T09:08:21;6.85;;;2.95;;
78618;SDS011;67941;52.506;5.470;2023-04-29T09:10:51;5.32;;;1.85;;
78618;SDS011;67941;52.506;5.470;2023-04-29T09:13:23;4.47;;;1.55;;
78618;SDS011;67941;52.506;5.470;2023-04-29T09:15:55;4.53;;;1.67;;
78618;SDS011;67941;52.506;5.470;2023-04-29T09:21:12;5.13;;;1.45;;
78618;SDS011;67941;52.506;5.470;2023-04-29T09:23:43;5.18;;;1.85;;
78618;SDS011;67941;52.506;5.470;2023-04-29T09:26:12;5.20;;;1.60;;
78618;SDS011;67941;52.506;5.470;2023-04-29T09:28:41;5.47;;;2.78;;
78618;SDS011;67941;52.506;5.470;2023-04-29T09:31:14;6.40;;;2.28;;
78618;SDS011;67941;52.506;5.470;2023-04-29T09:33:54;3.42;;;1.25;;
78618;SDS011;67941;52.506;5.470;2023-04-29T09:39:10;4.88;;;1.70;;
78618;SDS011;67941;52.506;5.470;2023-04-29T09:41:41;6.07;;;2.42;;
78618;SDS011;67941;52.506;5.470;2023-04-29T09:44:27;4.43;;;1.83;;
78618;SDS011;67941;52.506;5.470;2023-04-29T09:47:00;4.65;;;1.60;;
78618;SDS011;67941;52.506;5.470;2023-04-29T09:49:31;6.43;;;1.83;;
78618;SDS011;67941;52.506;5.470;2023-04-29T09:52:03;5.88;;;2.13;;
78618;SDS011;67941;52.506;5.470;2023-04-29T09:54:34;7.25;;;2.58;;
78618;SDS011;67941;52.506;5.470;2023-04-29T09:57:04;4.93;;;1.75;;
78618;SDS011;67941;52.506;5.470;2023-04-29T09:59:34;6.65;;;1.88;;
78618;SDS011;67941;52.506;5.470;2023-04-29T10:02:19;6.38;;;2.10;;
78618;SDS011;67941;52.506;5.470;2023-04-29T10:04:53;6.47;;;2.45;;
78618;SDS011;67941;52.506;5.470;2023-04-29T10:07:23;3.97;;;1.65;;
78618;SDS011;67941;52.506;5.470;2023-04-29T10:09:54;6.88;;;3.00;;
78618;SDS011;67941;52.506;5.470;2023-04-29T10:12:23;5.80;;;3.03;;
78618;SDS011;67941;52.506;5.470;2023-04-29T10:14:54;3.80;;;1.50;;
78618;SDS011;67941;52.506;5.470;2023-04-29T10:17:32;5.95;;;1.98;;
78618;SDS011;67941;52.506;5.470;2023-04-29T10:20:08;6.57;;;2.63;;
78618;SDS011;67941;52.506;5.470;2023-04-29T10:22:44;4.88;;;1.90;;
78618;SDS011;67941;52.506;5.470;2023-04-29T10:25:14;6.65;;;3.20;;
78618;SDS011;67941;52.506;5.470;2023-04-29T10:27:44;4.80;;;2.05;;
78618;SDS011;67941;52.506;5.470;2023-04-29T10:30:14;5.03;;;1.90;;
78618;SDS011;67941;52.506;5.470;2023-04-29T10:32:48;5.22;;;1.80;;
78618;SDS011;67941;52.506;5.470;2023-04-29T10:35:18;5.32;;;1.90;;
78618;SDS011;67941;52.506;5.470;2023-04-29T10:37:49;4.03;;;1.75;;
78618;SDS011;67941;52.506;5.470;2023-04-29T10:40:21;6.95;;;2.20;;
78618;SDS011;67941;52.506;5.470;2023-04-29T10:42:54;3.40;;;1.55;;
78618;SDS011;67941;52.506;5.470;2023-04-29T10:45:23;4.75;;;2.42;;
78618;SDS011;67941;52.506;5.470;2023-04-29T10:48:11;6.40;;;2.00;;
78618;SDS011;67941;52.506;5.470;2023-04-29T10:53:36;6.95;;;2.17;;
78618;SDS011;67941;52.506;5.470;2023-04-29T10:56:34;6.43;;;2.00;;
78618;SDS011;67941;52.506;5.470;2023-04-29T10:59:05;5.60;;;1.63;;
78618;SDS011;67941;52.506;5.470;2023-04-29T11:01:48;7.03;;;2.25;;
78618;SDS011;67941;52.506;5.470;2023-04-29T11:04:20;4.50;;;1.60;;
78618;SDS011;67941;52.506;5.470;2023-04-29T11:06:50;5.05;;;2.05;;
78618;SDS011;67941;52.506;5.470;2023-04-29T11:09:23;4.03;;;1.50;;
78618;SDS011;67941;52.506;5.470;2023-04-29T11:11:58;6.97;;;1.98;;
78618;SDS011;67941;52.506;5.470;2023-04-29T11:14:30;6.43;;;2.63;;
78618;SDS011;67941;52.506;5.470;2023-04-29T11:17:02;5.93;;;1.90;;
78618;SDS011;67941;52.506;5.470;2023-04-29T11:19:35;5.60;;;1.90;;
78618;SDS011;67941;52.506;5.470;2023-04-29T11:22:13;7.78;;;2.03;;
78618;SDS011;67941;52.506;5.470;2023-04-29T11:24:52;6.57;;;2.05;;
78618;SDS011;67941;52.506;5.470;2023-04-29T11:27:23;5.57;;;2.33;;
78618;SDS011;67941;52.506;5.470;2023-04-29T11:29:53;6.22;;;2.25;;
78618;SDS011;67941;52.506;5.470;2023-04-29T11:32:30;5.57;;;1.83;;
78618;SDS011;67941;52.506;5.470;2023-04-29T11:35:10;3.22;;;1.52;;
78618;SDS011;67941;52.506;5.470;2023-04-29T11:37:40;7.53;;;2.55;;
78618;SDS011;67941;52.506;5.470;2023-04-29T11:40:10;4.78;;;1.85;;
78618;SDS011;67941;52.506;5.470;2023-04-29T11:42:42;7.18;;;2.33;;
78618;SDS011;67941;52.506;5.470;2023-04-29T11:45:12;7.45;;;2.10;;
78618;SDS011;67941;52.506;5.470;2023-04-29T11:47:42;5.70;;;2.13;;
78618;SDS011;67941;52.506;5.470;2023-04-29T11:50:14;4.35;;;2.00;;
78618;SDS011;67941;52.506;5.470;2023-04-29T11:55:13;5.85;;;1.75;;
78618;SDS011;67941;52.506;5.470;2023-04-29T11:57:42;7.72;;;2.05;;
78618;SDS011;67941;52.506;5.470;2023-04-29T12:00:12;6.00;;;2.45;;
78618;SDS011;67941;52.506;5.470;2023-04-29T12:02:42;5.28;;;1.70;;
78618;SDS011;67941;52.506;5.470;2023-04-29T12:05:15;5.78;;;2.40;;
78618;SDS011;67941;52.506;5.470;2023-04-29T12:07:44;6.20;;;2.10;;
78618;SDS011;67941;52.506;5.470;2023-04-29T12:10:13;5.63;;;2.28;;
78618;SDS011;67941;52.506;5.470;2023-04-29T12:12:41;5.72;;;1.92;;
78618;SDS011;67941;52.506;5.470;2023-04-29T12:15:11;8.23;;;2.08;;
78618;SDS011;67941;52.506;5.470;2023-04-29T12:17:40;4.38;;;1.48;;
78618;SDS011;67941;52.506;5.470;2023-04-29T12:20:10;5.70;;;1.83;;
78618;SDS011;67941;52.506;5.470;2023-04-29T12:22:43;3.40;;;1.42;;
78618;SDS011;67941;52.506;5.470;2023-04-29T12:25:11;8.57;;;2.17;;
78618;SDS011;67941;52.506;5.470;2023-04-29T12:27:41;8.13;;;2.58;;
78618;SDS011;67941;52.506;5.470;2023-04-29T12:30:10;4.32;;;1.98;;
78618;SDS011;67941;52.506;5.470;2023-04-29T12:32:39;6.28;;;1.83;;
78618;SDS011;67941;52.506;5.470;2023-04-29T12:35:13;4.65;;;1.33;;
78618;SDS011;67941;52.506;5.470;2023-04-29T12:37:49;5.15;;;1.35;;
78618;SDS011;67941;52.506;5.470;2023-04-29T12:40:18;5.55;;;1.63;;
78618;SDS011;67941;52.506;5.470;2023-04-29T12:42:47;6.13;;;1.58;;
78618;SDS011;67941;52.506;5.470;2023-04-29T12:45:26;4.70;;;1.48;;
78618;SDS011;67941;52.506;5.470;2023-04-29T12:47:56;5.78;;;1.83;;
78618;SDS011;67941;52.506;5.470;2023-04-29T12:50:29;5.72;;;1.38;;
78618;SDS011;67941;52.506;5.470;2023-04-29T12:53:03;2.75;;;1.38;;
78618;SDS011;67941;52.506;5.470;2023-04-29T12:55:33;2.47;;;0.93;;
78618;SDS011;67941;52.506;5.470;2023-04-29T12:58:02;2.45;;;1.02;;
78618;SDS011;67941;52.506;5.470;2023-04-29T13:00:33;3.30;;;1.38;;
78618;SDS011;67941;52.506;5.470;2023-04-29T13:03:02;3.10;;;1.00;;
78618;SDS011;67941;52.506;5.470;2023-04-29T13:05:32;2.90;;;0.93;;
78618;SDS011;67941;52.506;5.470;2023-04-29T13:08:03;3.22;;;0.90;;
78618;SDS011;67941;52.506;5.470;2023-04-29T13:13:01;4.20;;;1.33;;
78618;SDS011;67941;52.506;5.470;2023-04-29T13:15:33;2.40;;;0.77;;
78618;SDS011;67941;52.506;5.470;2023-04-29T13:18:03;4.32;;;1.00;;
78618;SDS011;67941;52.506;5.470;2023-04-29T13:20:32;3.67;;;1.10;;
78618;SDS011;67941;52.506;5.470;2023-04-29T13:23:03;2.25;;;0.70;;
78618;SDS011;67941;52.506;5.470;2023-04-29T13:25:32;2.40;;;0.82;;
78618;SDS011;67941;52.506;5.470;2023-04-29T13:28:01;2.83;;;1.38;;
78618;SDS011;67941;52.506;5.470;2023-04-29T13:30:31;3.35;;;0.88;;
78618;SDS011;67941;52.506;5.470;2023-04-29T13:33:00;2.03;;;1.27;;
78618;SDS011;67941;52.506;5.470;2023-04-29T13:35:29;3.13;;;1.10;;
78618;SDS011;67941;52.506;5.470;2023-04-29T13:38:00;1.88;;;0.95;;
78618;SDS011;67941;52.506;5.470;2023-04-29T13:40:32;2.58;;;0.80;;
78618;SDS011;67941;52.506;5.470;2023-04-29T13:43:00;1.67;;;0.70;;
78618;SDS011;67941;52.506;5.470;2023-04-29T13:45:31;1.85;;;0.82;;
78618;SDS011;67941;52.506;5.470;2023-04-29T13:48:00;1.67;;;1.05;;
78618;SDS011;67941;52.506;5.470;2023-04-29T13:50:29;3.40;;;1.35;;
78618;SDS011;67941;52.506;5.470;2023-04-29T13:52:58;3.40;;;2.28;;
78618;SDS011;67941;52.506;5.470;2023-04-29T13:55:27;2.20;;;0.80;;
78618;SDS011;67941;52.506;5.470;2023-04-29T13:58:01;1.55;;;0.60;;
78618;SDS011;67941;52.506;5.470;2023-04-29T14:00:30;3.03;;;1.10;;
78618;SDS011;67941;52.506;5.470;2023-04-29T14:02:59;3.45;;;1.23;;
78618;SDS011;67941;52.506;5.470;2023-04-29T14:05:28;5.15;;;1.30;;
78618;SDS011;67941;52.506;5.470;2023-04-29T14:07:57;3.65;;;1.98;;
78618;SDS011;67941;52.506;5.470;2023-04-29T14:10:26;2.70;;;1.38;;
78618;SDS011;67941;52.506;5.470;2023-04-29T14:12:55;3.60;;;1.63;;
78618;SDS011;67941;52.506;5.470;2023-04-29T14:15:26;2.83;;;1.27;;
78618;SDS011;67941;52.506;5.470;2023-04-29T14:17:55;2.85;;;1.48;;
78618;SDS011;67941;52.506;5.470;2023-04-29T14:20:24;2.72;;;1.10;;
78618;SDS011;67941;52.506;5.470;2023-04-29T14:22:53;2.83;;;1.23;;
78618;SDS011;67941;52.506;5.470;2023-04-29T14:25:22;1.70;;;0.90;;
78618;SDS011;67941;52.506;5.470;2023-04-29T14:27:51;2.40;;;1.80;;
78618;SDS011;67941;52.506;5.470;2023-04-29T14:30:20;3.05;;;0.82;;
78618;SDS011;67941;52.506;5.470;2023-04-29T14:32:51;0.88;;;0.40;;
78618;SDS011;67941;52.506;5.470;2023-04-29T14:35:20;2.47;;;0.70;;
78618;SDS011;67941;52.506;5.470;2023-04-29T14:37:49;1.58;;;0.70;;
78618;SDS011;67941;52.506;5.470;2023-04-29T14:40:18;2.00;;;0.38;;
78618;SDS011;67941;52.506;5.470;2023-04-29T14:42:47;1.95;;;0.85;;
78618;SDS011;67941;52.506;5.470;2023-04-29T14:45:15;1.25;;;1.15;;
78618;SDS011;67941;52.506;5.470;2023-04-29T14:47:44;1.02;;;0.30;;
78618;SDS011;67941;52.506;5.470;2023-04-29T14:50:16;4.03;;;0.40;;
78618;SDS011;67941;52.506;5.470;2023-04-29T14:52:45;1.17;;;0.45;;
78618;SDS011;67941;52.506;5.470;2023-04-29T14:55:14;0.73;;;0.40;;
78618;SDS011;67941;52.506;5.470;2023-04-29T14:57:43;0.85;;;0.40;;
78618;SDS011;67941;52.506;5.470;2023-04-29T15:00:12;0.98;;;0.30;;
78618;SDS011;67941;52.506;5.470;2023-04-29T15:02:42;1.77;;;0.50;;
78618;SDS011;67941;52.506;5.470;2023-04-29T15:05:11;1.88;;;0.50;;
78618;SDS011;67941;52.506;5.470;2023-04-29T15:07:42;0.75;;;0.30;;
78618;SDS011;67941;52.506;5.470;2023-04-29T15:10:11;1.13;;;0.60;;
78618;SDS011;67941;52.506;5.470;2023-04-29T15:12:40;1.33;;;0.40;;
78618;SDS011;67941;52.506;5.470;2023-04-29T15:15:09;1.17;;;0.43;;
78618;SDS011;67941;52.506;5.470;2023-04-29T15:17:38;0.73;;;0.30;;
78618;SDS011;67941;52.506;5.470;2023-04-29T15:20:07;1.05;;;0.45;;
78618;SDS011;67941;52.506;5.470;2023-04-29T15:22:37;2.13;;;0.60;;
78618;SDS011;67941;52.506;5.470;2023-04-29T15:25:09;0.93;;;0.40;;
78618;SDS011;67941;52.506;5.470;2023-04-29T15:27:38;1.20;;;0.22;;